METAR Data
IDs: Format: Raw Decoded Include TAF

Data at: 0832 UTC 10 Dec 2022

METAR for:VTUQ (Nakhon Ratchasima Ar, 30, TH)
Text:VTUQ 100800Z 36006KT 340V050 9999 FEW040 30/21 Q1009 NOSIG
Temperature: 30.0°C ( 86°F)
Dewpoint: 21.0°C ( 70°F) [RH = 59%]
Pressure (altimeter):29.79 inches Hg (1009.0 mb)
Winds:from the N (360 degrees) at 7 MPH (6 knots; 3.1 m/s)
Visibility:6 or more sm (10+ km)
Ceiling:at least 12,000 feet AGL
Clouds: few clouds at 4000 feet AGL